Cleo, Mississippi
Current Conditions -  °F | °C
As of 6:15 PM on Friday 19 Dec 2014 (Local Time) from KPIB Reporting Station
Broken Clouds Broken Clouds  
Wind Chill:   Ceiling: 1400
Heat Index:   Visibility: 6mi
Dew Point:   Wind: 9mph
Humidity: 87%   Direction: 30°NNE
Pressure: 30.15"   Gusts: NA
Location:  31.6875°N, 89.1116°W
Report Text: KPIB 200015Z AUTO 03008KT 6SM SCT009 BKN014 08/06 A3015 RMK AO1 P0006
Loading
Personal Weather Stations






























Interactive Weather Map New forecast layout! Learn more

10-Day Weather Forecast

Advertisements
Track Severe Weather on mobile